Mosul, Iraq
Current Conditions -  °F | °C
As of 3:00 PM on Monday 20 Oct 2014 (Local Time) from ORER Reporting Station
Scattered Clouds Scattered Clouds  
Wind Chill: 66°   Ceiling: Unl
Heat Index: 66°   Visibility: 6mi
Dew Point: 64°   Wind: 5mph
Humidity: 94%   Direction: 50°NE
Pressure: 29.65"   Gusts: NA
Location:  36.34°N, 43.14°E
Report Text: ORER 201200Z 05004KT 9000 SCT030 SCT080 19/18 Q1004 TEMPO TSSHRA
Loading
Personal Weather Stations






























Interactive Weather Map
Tropical Storm Tracking
New forecast layout! Learn more

10-Day Weather Forecast

Advertisements
Track Severe Weather on mobile